createdAt,value
2022-09-01T00:02:24.531Z,18.06
2022-09-01T00:05:30.336Z,18.02
2022-09-01T00:08:37.408Z,17.98
2022-09-01T00:11:43.603Z,17.93
2022-09-01T00:14:53.449Z,17.89
2022-09-01T00:17:59.916Z,17.80
2022-09-01T00:21:06.025Z,17.74
2022-09-01T00:24:12.270Z,17.67
2022-09-01T00:27:17.485Z,17.65
2022-09-01T00:30:25.000Z,17.64
2022-09-01T00:33:32.490Z,17.60
2022-09-01T00:36:38.118Z,17.56
2022-09-01T00:39:43.880Z,17.55
2022-09-01T00:42:51.483Z,17.52
2022-09-01T00:45:58.610Z,17.47
2022-09-01T00:49:16.197Z,17.42
2022-09-01T00:52:33.422Z,17.38
2022-09-01T00:55:36.611Z,17.34
2022-09-01T00:58:45.624Z,17.29
2022-09-01T01:01:52.145Z,17.25
2022-09-01T01:04:59.347Z,17.20
2022-09-01T01:08:07.199Z,17.13
2022-09-01T01:11:18.562Z,17.06
2022-09-01T01:14:26.901Z,17.00
2022-09-01T01:17:35.619Z,16.97
2022-09-01T01:21:00.114Z,16.94
2022-09-01T01:24:14.500Z,16.89
2022-09-01T01:27:19.922Z,16.87
2022-09-01T01:30:20.952Z,16.82
2022-09-01T01:33:27.199Z,16.78
2022-09-01T01:36:45.377Z,16.77
2022-09-01T01:39:51.760Z,16.72
2022-09-01T01:43:04.051Z,16.68
2022-09-01T01:46:12.871Z,16.65
2022-09-01T01:49:20.273Z,16.58
2022-09-01T01:52:28.781Z,16.53
2022-09-01T01:55:37.534Z,16.50
2022-09-01T01:58:42.860Z,16.46
2022-09-01T02:01:51.008Z,16.44
2022-09-01T02:04:56.719Z,16.46
2022-09-01T02:08:06.260Z,16.38
2022-09-01T02:11:13.295Z,16.32
2022-09-01T02:14:23.207Z,16.28
2022-09-01T02:17:30.205Z,16.24
2022-09-01T02:20:37.052Z,16.21
2022-09-01T02:23:46.198Z,16.16
2022-09-01T02:26:56.550Z,16.14
2022-09-01T02:30:02.514Z,16.10
2022-09-01T02:33:08.880Z,16.06
2022-09-01T02:36:20.884Z,16.04
2022-09-01T02:39:29.608Z,16.02
2022-09-01T02:42:37.202Z,16.01
2022-09-01T02:45:44.343Z,15.99
2022-09-01T02:48:52.606Z,16.00
2022-09-01T02:51:56.899Z,15.99
2022-09-01T02:54:51.716Z,15.99
2022-09-01T02:57:57.469Z,15.95
2022-09-01T03:01:08.272Z,15.85
2022-09-01T03:04:19.359Z,15.78
2022-09-01T03:07:28.871Z,15.74
2022-09-01T03:10:37.578Z,15.71
2022-09-01T03:13:43.956Z,15.72
2022-09-01T03:16:52.421Z,15.70
2022-09-01T03:19:59.253Z,15.67
2022-09-01T03:23:06.235Z,15.64
2022-09-01T03:26:12.093Z,15.63
2022-09-01T03:29:18.066Z,15.63
2022-09-01T03:32:25.849Z,15.64
2022-09-01T03:35:32.110Z,15.62
2022-09-01T03:38:40.243Z,15.62
2022-09-01T03:41:45.179Z,15.63
2022-09-01T03:44:51.435Z,15.64
2022-09-01T03:48:00.463Z,15.66
2022-09-01T03:51:11.126Z,15.65
2022-09-01T03:54:17.921Z,15.67
2022-09-01T03:57:23.878Z,15.68
2022-09-01T04:00:31.781Z,15.71
2022-09-01T04:03:42.931Z,15.75
2022-09-01T04:06:54.139Z,15.76
2022-09-01T04:10:00.712Z,15.80
2022-09-01T04:13:07.247Z,15.80
2022-09-01T04:16:17.859Z,15.84
2022-09-01T04:19:30.874Z,15.86
2022-09-01T04:22:37.657Z,15.87
2022-09-01T04:25:45.462Z,15.91
2022-09-01T04:28:55.071Z,15.93
2022-09-01T04:32:00.709Z,15.95
2022-09-01T04:35:09.649Z,16.01
2022-09-01T04:38:16.925Z,16.05
2022-09-01T04:41:25.032Z,16.06
2022-09-01T04:44:36.792Z,16.08
2022-09-01T04:47:44.781Z,16.08
2022-09-01T04:50:55.768Z,16.12
2022-09-01T04:54:04.887Z,16.19
2022-09-01T04:57:14.130Z,16.30
2022-09-01T05:00:23.868Z,16.38
2022-09-01T05:03:32.363Z,16.48
2022-09-01T05:06:41.435Z,16.58
2022-09-01T05:09:50.835Z,16.70
2022-09-01T05:13:07.989Z,16.81
2022-09-01T05:16:25.274Z,16.93
2022-09-01T05:19:32.302Z,17.01
2022-09-01T05:22:41.381Z,17.11
2022-09-01T05:25:50.167Z,17.20
2022-09-01T05:28:58.087Z,17.29
2022-09-01T05:32:04.443Z,17.39
2022-09-01T05:35:12.372Z,17.49
2022-09-01T05:38:20.467Z,17.58
2022-09-01T05:41:27.350Z,17.66
2022-09-01T05:44:34.735Z,17.76
2022-09-01T05:47:44.337Z,17.88
2022-09-01T05:50:51.003Z,17.98
2022-09-01T05:53:58.710Z,18.05
2022-09-01T05:57:30.283Z,18.12
2022-09-01T06:00:14.660Z,18.20
2022-09-01T06:03:22.055Z,18.26
2022-09-01T06:06:40.029Z,18.33
2022-09-01T06:09:38.455Z,18.39
2022-09-01T06:12:48.693Z,18.46
2022-09-01T06:15:55.002Z,18.53
2022-09-01T06:19:04.442Z,18.60
2022-09-01T06:22:11.841Z,18.67
2022-09-01T06:25:18.801Z,18.76
2022-09-01T06:28:30.381Z,18.85
2022-09-01T06:31:44.406Z,18.92
2022-09-01T06:34:58.428Z,19.00
2022-09-01T06:38:12.051Z,19.07
2022-09-01T06:41:27.406Z,19.16
2022-09-01T06:44:41.246Z,19.23
2022-09-01T06:47:46.898Z,19.33
2022-09-01T06:54:10.836Z,19.45
2022-09-01T07:00:30.895Z,19.54
2022-09-01T07:03:39.331Z,19.61
2022-09-01T07:08:04.578Z,19.68
2022-09-01T07:10:17.723Z,19.76
2022-09-01T07:13:16.118Z,19.83
2022-09-01T07:16:51.699Z,19.91
2022-09-01T07:19:57.737Z,19.98
2022-09-01T07:23:05.536Z,20.08
2022-09-01T07:26:24.699Z,20.17
2022-09-01T07:29:26.614Z,20.21
2022-09-01T07:32:43.579Z,20.28
2022-09-01T07:45:32.251Z,20.54
2022-09-01T07:51:47.066Z,20.61
2022-09-01T07:54:56.859Z,20.70
2022-09-01T07:58:03.302Z,20.75
2022-09-01T08:01:17.570Z,20.79
2022-09-01T08:04:27.979Z,20.87
2022-09-01T08:07:58.161Z,21.00
2022-09-01T08:11:04.245Z,21.15
2022-09-01T08:14:06.742Z,21.28
2022-09-01T08:17:18.042Z,21.41
2022-09-01T08:20:22.744Z,21.45
2022-09-01T08:23:34.631Z,21.56
2022-09-01T08:26:44.269Z,21.66
2022-09-01T08:29:55.676Z,21.70
2022-09-01T08:33:12.704Z,21.71
2022-09-01T08:36:22.902Z,21.70
2022-09-01T08:39:24.827Z,21.78
2022-09-01T08:42:49.318Z,21.92
2022-09-01T08:46:11.174Z,22.09
2022-09-01T08:49:26.627Z,22.22
2022-09-01T08:52:50.097Z,22.23
2022-09-01T08:56:02.898Z,22.18
2022-09-01T08:59:08.774Z,22.17
2022-09-01T09:02:46.205Z,22.20
2022-09-01T09:06:25.213Z,22.33
2022-09-01T09:09:33.471Z,22.40
2022-09-01T09:13:09.800Z,22.48
2022-09-01T09:16:34.892Z,22.56
2022-09-01T09:19:49.531Z,22.47
2022-09-01T09:22:59.832Z,22.45
2022-09-01T09:26:07.986Z,22.51
2022-09-01T09:29:12.519Z,22.57
2022-09-01T09:32:24.027Z,22.61
2022-09-01T09:35:39.888Z,22.71
2022-09-01T09:38:45.796Z,22.80
2022-09-01T09:41:53.870Z,22.93
2022-09-01T09:45:02.676Z,22.97
2022-09-01T09:48:10.886Z,23.03
2022-09-01T09:51:36.842Z,23.14
2022-09-01T09:54:45.004Z,23.20
2022-09-01T09:57:54.534Z,23.33
2022-09-01T10:01:17.506Z,23.44
2022-09-01T10:04:23.394Z,23.44
2022-09-01T10:07:52.087Z,23.37
2022-09-01T10:11:05.388Z,23.31
2022-09-01T10:14:13.608Z,23.28
2022-09-01T10:17:35.952Z,23.22
2022-09-01T10:20:41.842Z,23.22
2022-09-01T10:23:51.471Z,23.41
2022-09-01T10:26:58.769Z,23.60
2022-09-01T10:30:23.201Z,23.67
2022-09-01T10:33:31.693Z,23.81
2022-09-01T10:36:41.488Z,23.93
2022-09-01T10:39:51.661Z,24.06
2022-09-01T10:42:59.311Z,24.10
2022-09-01T10:46:09.076Z,23.99
2022-09-01T10:49:46.873Z,23.94
2022-09-01T10:53:04.963Z,24.02
2022-09-01T10:56:43.686Z,24.03
2022-09-01T10:59:56.850Z,24.03
2022-09-01T11:02:54.832Z,24.04
2022-09-01T11:06:14.449Z,24.20
2022-09-01T11:09:43.200Z,24.26
2022-09-01T11:12:59.661Z,24.14
2022-09-01T11:20:18.551Z,24.12
2022-09-01T11:28:07.717Z,23.96
2022-09-01T11:31:57.595Z,23.82
2022-09-01T11:35:04.457Z,23.74
2022-09-01T11:38:17.145Z,23.85
2022-09-01T11:41:23.500Z,23.97
2022-09-01T11:45:06.726Z,23.94
2022-09-01T11:48:24.324Z,23.93
2022-09-01T11:51:31.085Z,24.05
2022-09-01T11:54:38.379Z,24.10
2022-09-01T11:57:52.193Z,24.06
2022-09-01T12:00:57.815Z,23.97
2022-09-01T12:04:05.202Z,23.94
2022-09-01T12:07:20.562Z,23.98
2022-09-01T12:10:42.588Z,23.94
2022-09-01T12:13:47.940Z,23.92
2022-09-01T12:16:55.199Z,23.94
2022-09-01T12:20:01.901Z,23.87
2022-09-01T12:23:09.609Z,23.92
2022-09-01T12:26:26.416Z,24.01
2022-09-01T12:29:35.697Z,24.05
2022-09-01T12:32:42.715Z,24.01
2022-09-01T12:35:50.741Z,23.99
2022-09-01T12:38:58.531Z,23.93
2022-09-01T12:42:20.862Z,23.89
2022-09-01T12:45:27.618Z,23.85
2022-09-01T12:48:53.440Z,23.68
2022-09-01T12:52:00.777Z,23.48
2022-09-01T12:58:23.923Z,23.41
2022-09-01T13:01:42.466Z,23.42
2022-09-01T13:04:48.453Z,23.52
2022-09-01T13:07:55.120Z,23.61
2022-09-01T13:11:08.238Z,23.71
2022-09-01T13:14:15.257Z,23.76
2022-09-01T13:17:20.702Z,23.74
2022-09-01T13:20:26.875Z,23.75
2022-09-01T13:23:33.757Z,23.59
2022-09-01T13:26:39.269Z,23.52
2022-09-01T13:29:53.158Z,23.49
2022-09-01T13:33:20.334Z,23.42
2022-09-01T13:39:42.358Z,23.30
2022-09-01T13:42:49.597Z,23.12
2022-09-01T13:45:59.078Z,23.01
2022-09-01T13:49:42.038Z,22.93
2022-09-01T13:52:14.504Z,22.85
2022-09-01T13:55:22.253Z,22.82
2022-09-01T13:58:28.030Z,22.82
2022-09-01T14:01:37.088Z,22.85
2022-09-01T14:04:44.887Z,22.92
2022-09-01T14:07:55.534Z,23.00
2022-09-01T14:11:07.337Z,23.02
2022-09-01T14:14:14.734Z,23.02
2022-09-01T14:17:21.127Z,23.05
2022-09-01T14:20:29.878Z,23.14
2022-09-01T14:23:36.151Z,23.14
2022-09-01T14:26:46.141Z,23.14
2022-09-01T14:29:54.896Z,23.13
2022-09-01T14:33:01.491Z,23.13
2022-09-01T14:36:10.041Z,23.09
2022-09-01T14:39:16.157Z,22.96
2022-09-01T14:42:23.426Z,22.78
2022-09-01T14:45:30.217Z,22.61
2022-09-01T14:48:37.121Z,22.53
2022-09-01T14:54:52.968Z,22.41
2022-09-01T14:57:59.020Z,22.38
2022-09-01T15:01:23.525Z,22.37
2022-09-01T15:04:14.080Z,22.33
2022-09-01T15:07:21.678Z,22.27
2022-09-01T15:10:30.421Z,22.21
2022-09-01T15:13:36.642Z,22.11
2022-09-01T15:16:44.434Z,22.02
2022-09-01T15:19:50.510Z,22.02
2022-09-01T15:22:57.179Z,22.05
2022-09-01T15:26:07.115Z,22.09
2022-09-01T15:29:16.371Z,22.07
2022-09-01T15:32:27.758Z,22.01
2022-09-01T15:35:30.907Z,21.93
2022-09-01T15:38:35.788Z,21.86
2022-09-01T15:41:45.076Z,21.77
2022-09-01T15:44:50.283Z,21.63
2022-09-01T15:47:57.993Z,21.50
2022-09-01T15:51:04.534Z,21.39
2022-09-01T15:54:15.786Z,21.27
2022-09-01T15:57:23.329Z,21.16
2022-09-01T16:00:30.954Z,21.05
2022-09-01T16:03:38.700Z,20.95
2022-09-01T16:06:46.726Z,20.86
2022-09-01T16:09:52.779Z,20.73
2022-09-01T16:12:59.917Z,20.59
2022-09-01T16:16:30.534Z,20.46
2022-09-01T16:20:10.005Z,20.35
2022-09-01T16:23:38.557Z,20.25
2022-09-01T16:26:45.014Z,20.12
2022-09-01T16:29:59.451Z,20.00
2022-09-01T16:33:05.942Z,19.87
2022-09-01T16:36:50.221Z,19.74
2022-09-01T16:40:09.799Z,19.62
2022-09-01T16:43:57.207Z,19.48
2022-09-01T16:47:21.055Z,19.38
2022-09-01T16:50:55.509Z,19.25
2022-09-01T16:54:12.858Z,19.13
2022-09-01T16:57:35.950Z,19.00
2022-09-01T17:00:46.709Z,18.89
2022-09-01T17:04:18.808Z,18.78
2022-09-01T17:07:43.247Z,18.65
2022-09-01T17:11:14.789Z,18.54
2022-09-01T17:14:22.709Z,18.47
2022-09-01T17:17:33.876Z,18.37
2022-09-01T17:20:43.143Z,18.30
2022-09-01T17:23:55.578Z,18.23
2022-09-01T17:27:01.495Z,18.16
2022-09-01T17:30:08.318Z,18.07
2022-09-01T17:33:25.702Z,17.97
2022-09-01T17:36:38.147Z,17.86
2022-09-01T17:40:05.681Z,17.76
2022-09-01T17:43:32.551Z,17.67
2022-09-01T17:47:06.039Z,17.59
2022-09-01T17:54:14.571Z,17.44
2022-09-01T17:57:37.597Z,17.40
2022-09-01T18:01:00.003Z,17.36
2022-09-01T18:04:45.134Z,17.30
2022-09-01T18:08:31.898Z,17.28
2022-09-01T18:12:18.618Z,17.23
2022-09-01T18:15:35.968Z,17.18
2022-09-01T18:18:52.473Z,17.13
2022-09-01T18:22:07.122Z,17.08
2022-09-01T18:25:20.762Z,17.02
2022-09-01T18:28:27.826Z,16.97
2022-09-01T18:31:59.889Z,16.91
2022-09-01T18:35:40.295Z,16.87
2022-09-01T18:39:12.560Z,16.83
2022-09-01T18:42:37.371Z,16.78
2022-09-01T18:46:04.616Z,16.74
2022-09-01T18:49:36.210Z,16.69
2022-09-01T18:53:18.404Z,16.63
2022-09-01T18:57:03.875Z,16.55
2022-09-01T19:00:25.643Z,16.47
2022-09-01T19:03:58.447Z,16.38
2022-09-01T19:07:34.081Z,16.30
2022-09-01T19:10:58.226Z,16.19
2022-09-01T19:14:36.527Z,16.12
2022-09-01T19:17:57.030Z,16.09
2022-09-01T19:21:19.919Z,16.07
2022-09-01T19:24:33.111Z,16.05
2022-09-01T19:27:42.437Z,16.01
2022-09-01T19:30:50.193Z,15.96
2022-09-01T19:34:04.429Z,15.93
2022-09-01T19:37:15.407Z,15.90
2022-09-01T19:40:25.132Z,15.85
2022-09-01T19:43:31.934Z,15.84
2022-09-01T19:46:48.425Z,15.82
2022-09-01T19:49:59.100Z,15.81
2022-09-01T19:53:29.821Z,15.78
2022-09-01T19:56:49.832Z,15.75
2022-09-01T20:00:05.009Z,15.71
2022-09-01T20:03:24.077Z,15.67
2022-09-01T20:06:50.113Z,15.63
2022-09-01T20:10:18.073Z,15.59
2022-09-01T20:13:32.125Z,15.54
2022-09-01T20:17:01.649Z,15.47
2022-09-01T20:20:26.841Z,15.43
2022-09-01T20:23:43.055Z,15.40
2022-09-01T20:26:52.176Z,15.35
2022-09-01T20:30:25.581Z,15.31
2022-09-01T20:33:41.674Z,15.25
2022-09-01T20:37:01.159Z,15.21
2022-09-01T20:40:19.035Z,15.20
2022-09-01T20:43:32.431Z,15.17
2022-09-01T20:46:39.179Z,15.12
2022-09-01T20:49:49.821Z,15.10
2022-09-01T20:53:22.199Z,15.07
2022-09-01T20:56:42.094Z,15.00
2022-09-01T21:00:03.017Z,14.93
2022-09-01T21:03:34.591Z,14.90
2022-09-01T21:07:06.776Z,14.83
2022-09-01T21:10:33.750Z,14.81
2022-09-01T21:14:02.204Z,14.76
2022-09-01T21:17:18.109Z,14.73
2022-09-01T21:21:07.886Z,14.70
2022-09-01T21:24:15.280Z,14.69
2022-09-01T21:27:31.678Z,14.68
2022-09-01T21:30:39.406Z,14.66
2022-09-01T21:33:46.574Z,14.62
2022-09-01T21:36:55.426Z,14.59
2022-09-01T21:40:03.702Z,14.54
2022-09-01T21:43:15.933Z,14.50
2022-09-01T21:46:26.132Z,14.47
2022-09-01T21:49:35.526Z,14.41
2022-09-01T21:52:43.626Z,14.37
2022-09-01T21:55:50.295Z,14.32
2022-09-01T21:58:58.190Z,14.26
2022-09-01T22:02:05.301Z,14.20
2022-09-01T22:05:12.277Z,14.15
2022-09-01T22:08:20.895Z,14.10
2022-09-01T22:11:26.037Z,14.06
2022-09-01T22:14:33.220Z,13.98
2022-09-01T22:17:38.569Z,13.91
2022-09-01T22:20:45.043Z,13.83
2022-09-01T22:23:51.509Z,13.76
2022-09-01T22:26:51.216Z,13.69
2022-09-01T22:29:59.536Z,13.67
2022-09-01T22:33:06.308Z,13.62
2022-09-01T22:36:12.073Z,13.53
2022-09-01T22:39:18.229Z,13.46
2022-09-01T22:42:25.030Z,13.39
2022-09-01T22:45:33.148Z,13.32
2022-09-01T22:48:40.507Z,13.23
2022-09-01T22:51:46.655Z,13.17
2022-09-01T22:54:52.702Z,13.08
2022-09-01T22:58:00.117Z,13.01
2022-09-01T23:01:07.129Z,12.94
2022-09-01T23:04:14.800Z,12.87
2022-09-01T23:07:21.072Z,12.81
2022-09-01T23:10:27.132Z,12.77
2022-09-01T23:13:35.132Z,12.69
2022-09-01T23:16:42.617Z,12.63
2022-09-01T23:19:48.178Z,12.55
2022-09-01T23:22:57.220Z,12.48
2022-09-01T23:26:03.367Z,12.43
2022-09-01T23:29:09.232Z,12.39
2022-09-01T23:32:14.532Z,12.36
2022-09-01T23:35:20.642Z,12.31
2022-09-01T23:38:27.711Z,12.27
2022-09-01T23:41:39.240Z,12.23
2022-09-01T23:44:44.971Z,12.21
2022-09-01T23:47:52.667Z,12.16
2022-09-01T23:51:12.969Z,12.13
2022-09-01T23:54:18.818Z,12.10
2022-09-01T23:57:25.993Z,12.05
